sensor_id;sensor_type;location;lat;lon;timestamp;P1;durP1;ratioP1;P2;durP2;ratioP2
33287;SDS011;19657;50.452;30.372;2023-06-14T07:07:36;7.50;;;2.50;;
33287;SDS011;19657;50.452;30.372;2023-06-14T07:10:22;7.20;;;2.70;;
33287;SDS011;19657;50.452;30.372;2023-06-14T07:13:10;7.30;;;2.90;;
33287;SDS011;19657;50.452;30.372;2023-06-14T07:15:57;6.90;;;2.70;;
33287;SDS011;19657;50.452;30.372;2023-06-14T07:18:47;6.40;;;2.80;;
33287;SDS011;19657;50.452;30.372;2023-06-14T07:21:33;8.10;;;2.70;;
33287;SDS011;19657;50.452;30.372;2023-06-14T07:24:20;4.10;;;2.40;;
33287;SDS011;19657;50.452;30.372;2023-06-14T07:27:07;5.60;;;2.80;;
33287;SDS011;19657;50.452;30.372;2023-06-14T07:29:54;6.70;;;2.50;;
33287;SDS011;19657;50.452;30.372;2023-06-14T07:32:40;7.40;;;2.60;;
33287;SDS011;19657;50.452;30.372;2023-06-14T07:35:28;5.60;;;2.20;;
33287;SDS011;19657;50.452;30.372;2023-06-14T07:38:14;4.40;;;2.20;;
33287;SDS011;19657;50.452;30.372;2023-06-14T07:41:01;5.60;;;2.20;;
33287;SDS011;19657;50.452;30.372;2023-06-14T07:43:47;6.10;;;2.30;;
33287;SDS011;19657;50.452;30.372;2023-06-14T07:46:34;4.30;;;2.10;;
33287;SDS011;19657;50.452;30.372;2023-06-14T07:49:20;5.70;;;2.30;;
33287;SDS011;19657;50.452;30.372;2023-06-14T07:52:07;6.00;;;2.10;;
33287;SDS011;19657;50.452;30.372;2023-06-14T07:54:53;5.20;;;2.40;;
33287;SDS011;19657;50.452;30.372;2023-06-14T07:57:39;3.70;;;1.90;;
33287;SDS011;19657;50.452;30.372;2023-06-14T08:00:25;5.10;;;2.20;;
33287;SDS011;19657;50.452;30.372;2023-06-14T08:03:11;5.90;;;2.10;;
33287;SDS011;19657;50.452;30.372;2023-06-14T08:06:01;10.60;;;2.50;;
33287;SDS011;19657;50.452;30.372;2023-06-14T08:08:47;7.30;;;2.20;;
33287;SDS011;19657;50.452;30.372;2023-06-14T08:11:34;8.60;;;2.20;;
33287;SDS011;19657;50.452;30.372;2023-06-14T08:14:22;8.00;;;2.00;;
33287;SDS011;19657;50.452;30.372;2023-06-14T08:17:09;9.20;;;2.50;;
33287;SDS011;19657;50.452;30.372;2023-06-14T08:19:56;4.40;;;2.30;;
33287;SDS011;19657;50.452;30.372;2023-06-14T08:22:43;5.40;;;2.40;;
33287;SDS011;19657;50.452;30.372;2023-06-14T08:25:29;6.70;;;2.70;;
33287;SDS011;19657;50.452;30.372;2023-06-14T08:28:17;9.40;;;4.70;;
33287;SDS011;19657;50.452;30.372;2023-06-14T08:31:03;6.30;;;2.50;;
33287;SDS011;19657;50.452;30.372;2023-06-14T08:33:49;7.10;;;2.70;;
33287;SDS011;19657;50.452;30.372;2023-06-14T08:36:36;9.80;;;2.70;;
33287;SDS011;19657;50.452;30.372;2023-06-14T08:39:23;7.10;;;2.60;;
33287;SDS011;19657;50.452;30.372;2023-06-14T08:42:09;4.30;;;2.50;;
33287;SDS011;19657;50.452;30.372;2023-06-14T08:45:05;6.60;;;2.80;;
33287;SDS011;19657;50.452;30.372;2023-06-14T08:47:51;12.00;;;2.90;;
33287;SDS011;19657;50.452;30.372;2023-06-14T08:50:44;8.40;;;2.70;;
33287;SDS011;19657;50.452;30.372;2023-06-14T08:53:33;7.50;;;2.70;;
33287;SDS011;19657;50.452;30.372;2023-06-14T08:56:25;7.00;;;3.10;;
33287;SDS011;19657;50.452;30.372;2023-06-14T08:59:13;6.70;;;2.50;;
33287;SDS011;19657;50.452;30.372;2023-06-14T09:02:01;12.60;;;3.00;;
33287;SDS011;19657;50.452;30.372;2023-06-14T09:04:58;7.80;;;3.00;;
33287;SDS011;19657;50.452;30.372;2023-06-14T09:07:45;9.20;;;3.00;;
33287;SDS011;19657;50.452;30.372;2023-06-14T09:10:35;5.50;;;2.80;;
33287;SDS011;19657;50.452;30.372;2023-06-14T09:13:24;9.70;;;3.20;;
33287;SDS011;19657;50.452;30.372;2023-06-14T09:16:16;11.80;;;3.20;;
33287;SDS011;19657;50.452;30.372;2023-06-14T09:19:03;7.80;;;3.20;;
33287;SDS011;19657;50.452;30.372;2023-06-14T09:21:49;5.90;;;3.30;;
33287;SDS011;19657;50.452;30.372;2023-06-14T09:24:38;6.80;;;3.50;;
33287;SDS011;19657;50.452;30.372;2023-06-14T09:27:25;6.10;;;3.20;;
33287;SDS011;19657;50.452;30.372;2023-06-14T09:30:12;9.40;;;3.90;;
33287;SDS011;19657;50.452;30.372;2023-06-14T09:32:59;7.10;;;3.30;;
33287;SDS011;19657;50.452;30.372;2023-06-14T09:35:50;6.80;;;3.40;;
33287;SDS011;19657;50.452;30.372;2023-06-14T09:38:37;5.90;;;3.30;;
33287;SDS011;19657;50.452;30.372;2023-06-14T09:41:33;8.60;;;3.70;;
33287;SDS011;19657;50.452;30.372;2023-06-14T09:44:23;5.50;;;3.30;;
33287;SDS011;19657;50.452;30.372;2023-06-14T09:47:17;5.70;;;3.80;;
33287;SDS011;19657;50.452;30.372;2023-06-14T09:50:04;12.70;;;3.50;;
33287;SDS011;19657;50.452;30.372;2023-06-14T09:52:52;10.30;;;7.10;;
33287;SDS011;19657;50.452;30.372;2023-06-14T09:55:43;8.90;;;3.90;;
33287;SDS011;19657;50.452;30.372;2023-06-14T09:58:32;8.80;;;3.40;;
33287;SDS011;19657;50.452;30.372;2023-06-14T10:01:23;7.50;;;4.00;;
33287;SDS011;19657;50.452;30.372;2023-06-14T10:04:11;10.90;;;3.60;;
33287;SDS011;19657;50.452;30.372;2023-06-14T10:07:01;8.20;;;4.00;;
33287;SDS011;19657;50.452;30.372;2023-06-14T10:09:49;8.40;;;4.30;;
33287;SDS011;19657;50.452;30.372;2023-06-14T10:12:36;6.40;;;3.90;;
33287;SDS011;19657;50.452;30.372;2023-06-14T10:15:28;12.00;;;4.20;;
33287;SDS011;19657;50.452;30.372;2023-06-14T10:19:40;6.00;;;4.30;;
33287;SDS011;19657;50.452;30.372;2023-06-14T10:22:09;10.60;;;4.50;;
33287;SDS011;19657;50.452;30.372;2023-06-14T10:25:01;7.50;;;4.00;;
33287;SDS011;19657;50.452;30.372;2023-06-14T10:27:48;6.50;;;3.90;;
33287;SDS011;19657;50.452;30.372;2023-06-14T10:30:35;7.70;;;4.30;;
33287;SDS011;19657;50.452;30.372;2023-06-14T10:33:21;6.30;;;3.70;;
33287;SDS011;19657;50.452;30.372;2023-06-14T10:36:24;10.80;;;4.20;;
33287;SDS011;19657;50.452;30.372;2023-06-14T10:39:17;11.00;;;4.50;;
33287;SDS011;19657;50.452;30.372;2023-06-14T10:42:04;7.10;;;3.90;;
33287;SDS011;19657;50.452;30.372;2023-06-14T10:44:53;8.80;;;4.00;;
33287;SDS011;19657;50.452;30.372;2023-06-14T10:47:41;5.00;;;3.50;;
33287;SDS011;19657;50.452;30.372;2023-06-14T10:50:27;10.10;;;4.40;;
33287;SDS011;19657;50.452;30.372;2023-06-14T10:53:23;8.80;;;4.20;;
33287;SDS011;19657;50.452;30.372;2023-06-14T10:56:32;8.40;;;3.50;;
33287;SDS011;19657;50.452;30.372;2023-06-14T10:59:20;6.70;;;4.10;;
33287;SDS011;19657;50.452;30.372;2023-06-14T11:05:25;7.10;;;3.90;;
33287;SDS011;19657;50.452;30.372;2023-06-14T11:11:18;8.50;;;4.10;;
33287;SDS011;19657;50.452;30.372;2023-06-14T11:14:09;7.20;;;4.20;;
33287;SDS011;19657;50.452;30.372;2023-06-14T11:16:56;8.30;;;3.70;;
33287;SDS011;19657;50.452;30.372;2023-06-14T11:19:42;9.10;;;4.40;;
33287;SDS011;19657;50.452;30.372;2023-06-14T11:22:30;7.90;;;4.90;;
33287;SDS011;19657;50.452;30.372;2023-06-14T11:25:26;8.00;;;4.10;;
33287;SDS011;19657;50.452;30.372;2023-06-14T11:28:16;8.30;;;4.10;;
33287;SDS011;19657;50.452;30.372;2023-06-14T11:31:03;9.90;;;4.00;;
33287;SDS011;19657;50.452;30.372;2023-06-14T11:33:50;9.10;;;3.70;;
33287;SDS011;19657;50.452;30.372;2023-06-14T11:36:36;9.80;;;3.70;;
33287;SDS011;19657;50.452;30.372;2023-06-14T11:39:26;15.00;;;4.00;;
33287;SDS011;19657;50.452;30.372;2023-06-14T11:42:15;8.10;;;3.70;;
33287;SDS011;19657;50.452;30.372;2023-06-14T11:45:02;6.80;;;4.30;;
33287;SDS011;19657;50.452;30.372;2023-06-14T11:47:55;9.50;;;4.20;;
33287;SDS011;19657;50.452;30.372;2023-06-14T11:50:42;10.70;;;3.60;;
33287;SDS011;19657;50.452;30.372;2023-06-14T11:53:28;9.00;;;4.00;;
33287;SDS011;19657;50.452;30.372;2023-06-14T11:56:15;11.40;;;3.70;;
33287;SDS011;19657;50.452;30.372;2023-06-14T11:59:03;11.70;;;3.50;;
33287;SDS011;19657;50.452;30.372;2023-06-14T12:01:54;7.60;;;3.10;;
33287;SDS011;19657;50.452;30.372;2023-06-14T12:04:41;5.80;;;3.50;;
33287;SDS011;19657;50.452;30.372;2023-06-14T12:07:28;7.20;;;3.50;;
33287;SDS011;19657;50.452;30.372;2023-06-14T12:10:17;7.10;;;3.30;;
33287;SDS011;19657;50.452;30.372;2023-06-14T12:13:04;5.40;;;3.40;;
33287;SDS011;19657;50.452;30.372;2023-06-14T12:15:55;6.00;;;3.60;;
33287;SDS011;19657;50.452;30.372;2023-06-14T12:18:43;9.40;;;3.90;;
33287;SDS011;19657;50.452;30.372;2023-06-14T12:21:29;7.90;;;3.80;;
33287;SDS011;19657;50.452;30.372;2023-06-14T12:24:19;6.30;;;3.20;;
33287;SDS011;19657;50.452;30.372;2023-06-14T12:27:05;8.00;;;3.80;;
33287;SDS011;19657;50.452;30.372;2023-06-14T12:30:03;8.00;;;3.50;;
33287;SDS011;19657;50.452;30.372;2023-06-14T12:32:50;7.90;;;3.30;;
